LFRU

Details ICAO LFRU (MXN)
Name Morlaix Ploujean
Region France
Timezone Europe/Paris (UTC+2.0)
Plans Departing 17
Arriving 22
Stats Elevation 277 ft / 84 m (AMSL)
Location 48.603238° -3.815856°
Runways 1
Magnetic Variation 1.324° W
Sunrise 2018-05-23 04:26:42 UTC / 2018-05-23 06:26:42 Local
Sunset 2018-05-23 20:00:11 UTC / 2018-05-23 22:00:11 Local
Advertisement - Login to hide

Runways

ID Width Length Bearing (true) Bearing (mag) Surface Threshold Offset Overrun Length
04 121 ft / 37 m 5,299 ft / 1,615 m 40.00° 41.32° Asphalt 459 ft / 140 m 0 ft / 0 m
22 121 ft / 37 m 5,299 ft / 1,615 m 220.01° 221.33° Asphalt 0 ft / 0 m 0 ft / 0 m

Approach Navaids

Runway Type Ident Frequency Range Bearing (true) Bearing (mag) Slope Elevation
22 Localiser MX 110.50 MHz 18 nm / 33 km 220.12° 221.44° - 277 ft / 84 m (AMSL)
22 DME MX 110.50 MHz 18 nm / 33 km - - - 277 ft / 84 m (AMSL)

Map

Weather


0- 5 10 15 20 25 30 35+ Temperature / ° C

Clouds and Precipitation
Forecast for 2018-05-23 18:00 UTC. Updated 3 minutes ago

Ground ~20,000 ft ~40,000 ft Winds

METAR

LFRU 231700Z AUTO 04011KT CAVOK 18/11 Q1019

TAF

Not found

Frequencies

Recorded 118.50 MHz MORLAIX FSS
Approach 135.82 MHz IROISE APP
Unicom 118.50 MHz MORLAIX MULT
Approach 122.40 MHz LANDI APP
Warning: Do not use this data for real-world aviation or navigation. No guarantee of current accuracy is given.